createdAt,value
2018-01-08T00:02:14.248Z,102827.59
2018-01-08T00:04:40.195Z,102832.14
2018-01-08T00:07:06.030Z,102834.89
2018-01-08T00:09:31.856Z,102832.16
2018-01-08T00:11:57.806Z,102833.92
2018-01-08T00:14:23.638Z,102837.81
2018-01-08T00:16:49.491Z,102838.67
2018-01-08T00:19:15.370Z,102838.34
2018-01-08T00:21:41.199Z,102843.51
2018-01-08T00:24:07.065Z,102835.46
2018-01-08T00:26:32.891Z,102836.15
2018-01-08T00:28:58.819Z,102828.70
2018-01-08T00:31:24.644Z,102834.53
2018-01-08T00:33:50.467Z,102838.33
2018-01-08T00:36:16.328Z,102827.48
2018-01-08T00:38:42.168Z,102823.45
2018-01-08T00:41:08.214Z,102826.02
2018-01-08T00:43:34.057Z,102831.29
2018-01-08T00:45:59.898Z,102836.75
2018-01-08T00:48:26.734Z,102828.58
2018-01-08T00:50:52.551Z,102835.02
2018-01-08T00:53:18.384Z,102828.76
2018-01-08T00:55:44.203Z,102826.52
2018-01-08T00:58:10.297Z,102829.00
2018-01-08T01:00:36.122Z,102828.34
2018-01-08T01:03:02.168Z,102830.12
2018-01-08T01:05:28.005Z,102831.40
2018-01-08T01:07:53.845Z,102833.20
2018-01-08T01:10:19.670Z,102825.18
2018-01-08T01:12:45.499Z,102818.95
2018-01-08T01:15:11.435Z,102814.50
2018-01-08T01:17:37.263Z,102820.30
2018-01-08T01:20:03.111Z,102821.42
2018-01-08T01:22:28.935Z,102816.82
2018-01-08T01:24:54.752Z,102815.16
2018-01-08T01:27:20.571Z,102813.69
2018-01-08T01:29:46.554Z,102811.78
2018-01-08T01:32:12.463Z,102811.80
2018-01-08T01:34:38.427Z,102812.05
2018-01-08T01:37:04.256Z,102818.70
2018-01-08T01:39:30.092Z,102813.44
2018-01-08T01:41:55.929Z,102811.67
2018-01-08T01:44:21.746Z,102805.81
2018-01-08T01:46:47.583Z,102804.25
2018-01-08T01:49:19.611Z,102800.11
2018-01-08T01:51:45.430Z,102800.42
2018-01-08T01:54:11.262Z,102806.42
2018-01-08T01:56:37.097Z,102801.16
2018-01-08T01:59:03.040Z,102804.98
2018-01-08T02:01:28.874Z,102811.23
2018-01-08T02:03:54.873Z,102808.84
2018-01-08T02:06:20.704Z,102806.16
2018-01-08T02:08:46.524Z,102812.29
2018-01-08T02:11:12.337Z,102811.70
2018-01-08T02:13:38.196Z,102810.23
2018-01-08T02:16:04.032Z,102816.25
2018-01-08T02:18:29.864Z,102813.48
2018-01-08T02:20:55.704Z,102812.02
2018-01-08T02:23:21.524Z,102811.91
2018-01-08T02:25:47.341Z,102813.94
2018-01-08T02:28:13.164Z,102810.56
2018-01-08T02:30:38.988Z,102819.48
2018-01-08T02:33:04.807Z,102816.84
2018-01-08T02:35:30.625Z,102818.53
2018-01-08T02:37:56.443Z,102811.64
2018-01-08T02:40:22.313Z,102812.76
2018-01-08T02:42:48.170Z,102807.48
2018-01-08T02:45:14.878Z,102805.64
2018-01-08T02:47:40.705Z,102798.31
2018-01-08T02:50:06.530Z,102797.13
2018-01-08T02:52:32.349Z,102793.88
2018-01-08T02:54:58.209Z,102793.59
2018-01-08T02:57:24.060Z,102795.34
2018-01-08T02:59:49.906Z,102795.52
2018-01-08T03:02:16.761Z,102789.28
2018-01-08T03:04:43.503Z,102792.42
2018-01-08T03:07:10.370Z,102790.87
2018-01-08T03:09:37.203Z,102801.93
2018-01-08T03:12:03.814Z,102796.81
2018-01-08T03:14:29.675Z,102804.92
2018-01-08T03:16:55.497Z,102814.27
2018-01-08T03:19:21.358Z,102811.30
2018-01-08T03:21:48.106Z,102812.23
2018-01-08T03:24:14.914Z,102814.52
2018-01-08T03:26:41.653Z,102812.41
2018-01-08T03:29:08.338Z,102815.31
2018-01-08T03:31:34.191Z,102820.20
2018-01-08T03:34:00.008Z,102820.75
2018-01-08T03:36:26.637Z,102824.33
2018-01-08T03:38:53.426Z,102823.30
2018-01-08T03:41:19.254Z,102827.07
2018-01-08T03:43:45.987Z,102826.33
2018-01-08T03:46:12.809Z,102820.73
2018-01-08T03:48:39.469Z,102822.66
2018-01-08T03:51:05.286Z,102830.75
2018-01-08T03:53:31.995Z,102821.17
2018-01-08T03:55:57.835Z,102822.13
2018-01-08T03:58:23.647Z,102825.01
2018-01-08T04:00:49.527Z,102821.05
2018-01-08T04:03:15.503Z,102820.30
2018-01-08T04:05:41.331Z,102818.45
2018-01-08T04:08:08.030Z,102806.73
2018-01-08T04:10:34.785Z,102802.58
2018-01-08T04:13:01.507Z,102814.54
2018-01-08T04:15:27.473Z,102811.09
2018-01-08T04:17:54.430Z,102801.42
2018-01-08T04:20:21.148Z,102804.53
2018-01-08T04:22:48.046Z,102812.72
2018-01-08T04:25:13.926Z,102809.25
2018-01-08T04:27:39.787Z,102813.78
2018-01-08T04:30:06.428Z,102818.55
2018-01-08T04:32:33.174Z,102821.04
2018-01-08T04:34:58.989Z,102816.20
2018-01-08T04:37:25.782Z,102816.17
2018-01-08T04:39:52.551Z,102822.76
2018-01-08T04:42:19.294Z,102819.87
2018-01-08T04:44:45.113Z,102815.97
2018-01-08T04:47:10.955Z,102827.45
2018-01-08T04:49:36.807Z,102829.00
2018-01-08T04:52:03.646Z,102830.30
2018-01-08T04:54:30.493Z,102833.67
2018-01-08T04:56:57.262Z,102844.84
2018-01-08T04:59:24.198Z,102851.25
2018-01-08T05:01:50.053Z,102847.30
2018-01-08T05:04:16.795Z,102850.64
2018-01-08T05:06:43.477Z,102851.92
2018-01-08T05:09:10.170Z,102847.09
2018-01-08T05:11:35.983Z,102847.45
2018-01-08T05:14:01.802Z,102846.59
2018-01-08T05:16:27.622Z,102855.73
2018-01-08T05:18:53.474Z,102859.95
2018-01-08T05:21:19.311Z,102857.42
2018-01-08T05:23:45.132Z,102864.08
2018-01-08T05:26:10.958Z,102876.09
2018-01-08T05:28:36.819Z,102875.23
2018-01-08T05:31:02.642Z,102879.58
2018-01-08T05:33:28.511Z,102877.44
2018-01-08T05:35:54.348Z,102877.98
2018-01-08T05:38:20.212Z,102872.06
2018-01-08T05:40:46.042Z,102877.41
2018-01-08T05:43:11.867Z,102877.55
2018-01-08T05:45:37.694Z,102878.23
2018-01-08T05:48:03.583Z,102873.02
2018-01-08T05:50:29.427Z,102875.02
2018-01-08T05:52:55.246Z,102876.80
2018-01-08T05:55:21.066Z,102878.97
2018-01-08T05:57:46.886Z,102885.06
2018-01-08T06:00:12.735Z,102882.00
2018-01-08T06:02:38.569Z,102883.36
2018-01-08T06:05:04.448Z,102883.39
2018-01-08T06:07:30.270Z,102884.56
2018-01-08T06:09:56.090Z,102886.38
2018-01-08T06:12:21.923Z,102880.30
2018-01-08T06:14:47.785Z,102885.92
2018-01-08T06:17:13.769Z,102885.11
2018-01-08T06:19:39.609Z,102893.80
2018-01-08T06:22:05.426Z,102894.43
2018-01-08T06:24:32.255Z,102893.12
2018-01-08T06:26:58.087Z,102888.70
2018-01-08T06:29:23.957Z,102898.95
2018-01-08T06:31:49.822Z,102902.88
2018-01-08T06:34:16.577Z,102905.11
2018-01-08T06:36:42.448Z,102912.84
2018-01-08T06:39:08.276Z,102916.06
2018-01-08T06:41:34.110Z,102916.49
2018-01-08T06:43:59.960Z,102920.56
2018-01-08T06:46:26.566Z,102917.30
2018-01-08T06:48:53.387Z,102919.26
2018-01-08T06:51:20.010Z,102915.64
2018-01-08T06:53:45.867Z,102914.98
2018-01-08T06:56:11.768Z,102907.29
2018-01-08T06:58:38.510Z,102908.44
2018-01-08T07:01:05.291Z,102911.94
2018-01-08T07:03:32.080Z,102916.58
2018-01-08T07:05:57.894Z,102909.40
2018-01-08T07:08:23.714Z,102916.25
2018-01-08T07:10:49.534Z,102911.34
2018-01-08T07:13:15.387Z,102917.83
2018-01-08T07:15:42.154Z,102912.33
2018-01-08T07:18:08.003Z,102908.31
2018-01-08T07:20:33.857Z,102902.58
2018-01-08T07:22:59.705Z,102911.53
2018-01-08T07:25:26.315Z,102906.30
2018-01-08T07:27:53.069Z,102906.14
2018-01-08T07:30:19.714Z,102916.61
2018-01-08T07:32:45.518Z,102907.52
2018-01-08T07:35:11.365Z,102906.11
2018-01-08T07:37:37.182Z,102906.91
2018-01-08T07:40:03.966Z,102905.70
2018-01-08T07:42:29.818Z,102901.86
2018-01-08T07:44:56.707Z,102900.88
2018-01-08T07:47:22.565Z,102900.98
2018-01-08T07:49:48.425Z,102902.75
2018-01-08T07:52:15.168Z,102906.62
2018-01-08T07:54:41.927Z,102905.66
2018-01-08T07:57:07.744Z,102906.68
2018-01-08T07:59:34.531Z,102913.88
2018-01-08T08:02:00.346Z,102915.02
2018-01-08T08:04:26.173Z,102922.08
2018-01-08T08:06:52.958Z,102919.13
2018-01-08T08:09:18.774Z,102920.69
2018-01-08T08:11:44.585Z,102923.16
2018-01-08T08:14:11.339Z,102923.80
2018-01-08T08:16:38.213Z,102922.47
2018-01-08T08:19:04.046Z,102923.56
2018-01-08T08:21:29.865Z,102925.99
2018-01-08T08:23:55.686Z,102933.51
2018-01-08T08:26:21.502Z,102935.71
2018-01-08T08:28:47.325Z,102928.63
2018-01-08T08:31:15.378Z,102929.22
2018-01-08T08:33:41.263Z,102932.13
2018-01-08T08:36:07.106Z,102926.14
2018-01-08T08:38:32.973Z,102916.97
2018-01-08T08:40:58.838Z,102914.13
2018-01-08T08:43:25.493Z,102911.83
2018-01-08T08:45:51.318Z,102907.59
2018-01-08T08:48:17.137Z,102897.81
2018-01-08T08:50:42.965Z,102897.69
2018-01-08T08:53:09.558Z,102905.39
2018-01-08T08:55:35.386Z,102898.15
2018-01-08T08:58:01.207Z,102898.77
2018-01-08T09:00:27.058Z,102904.16
2018-01-08T09:02:52.874Z,102901.74
2018-01-08T09:05:19.621Z,102898.83
2018-01-08T09:07:45.444Z,102897.16
2018-01-08T09:10:11.290Z,102901.47
2018-01-08T09:12:37.102Z,102904.17
2018-01-08T09:15:03.106Z,102901.42
2018-01-08T09:17:29.815Z,102900.42
2018-01-08T09:19:56.580Z,102899.61
2018-01-08T09:22:22.402Z,102901.20
2018-01-08T09:24:48.225Z,102910.50
2018-01-08T09:27:14.043Z,102910.43
2018-01-08T09:29:39.854Z,102916.45
2018-01-08T09:32:05.695Z,102917.20
2018-01-08T09:34:31.518Z,102922.92
2018-01-08T09:36:57.346Z,102917.50
2018-01-08T09:39:23.165Z,102913.95
2018-01-08T09:41:49.135Z,102911.81
2018-01-08T09:44:14.958Z,102909.42
2018-01-08T09:46:40.782Z,102898.08
2018-01-08T09:49:06.595Z,102904.09
2018-01-08T09:51:32.411Z,102900.53
2018-01-08T09:53:58.240Z,102900.00
2018-01-08T09:56:24.054Z,102890.18
2018-01-08T09:58:49.857Z,102885.53
2018-01-08T10:01:15.675Z,102885.53
2018-01-08T10:03:47.518Z,102881.16
2018-01-08T10:06:19.335Z,102879.53
2018-01-08T10:08:51.319Z,102880.23
2018-01-08T10:11:23.315Z,102883.29
2018-01-08T10:13:55.287Z,102878.98
2018-01-08T10:16:27.314Z,102879.75
2018-01-08T10:18:59.346Z,102881.59
2018-01-08T10:21:26.202Z,102880.23
2018-01-08T10:23:52.839Z,102874.40
2018-01-08T10:26:18.657Z,102881.39
2018-01-08T10:28:45.442Z,102879.89
2018-01-08T10:31:11.263Z,102883.11
2018-01-08T10:33:37.077Z,102869.63
2018-01-08T10:36:03.838Z,102866.70
2018-01-08T10:38:30.634Z,102868.61
2018-01-08T10:40:56.412Z,102867.56
2018-01-08T10:43:29.420Z,102869.46
2018-01-08T10:46:02.209Z,102867.27
2018-01-08T10:48:34.194Z,102864.33
2018-01-08T10:51:06.252Z,102864.02
2018-01-08T10:53:36.814Z,102860.75
2018-01-08T10:56:03.498Z,102853.78
2018-01-08T10:58:29.343Z,102851.41
2018-01-08T11:01:02.403Z,102850.55
2018-01-08T11:03:35.195Z,102842.09
2018-01-08T11:06:01.010Z,102835.77
2018-01-08T11:08:26.815Z,102838.53
2018-01-08T11:10:52.623Z,102835.91
2018-01-08T11:13:18.470Z,102836.09
2018-01-08T11:15:44.290Z,102832.52
2018-01-08T11:18:10.143Z,102835.02
2018-01-08T11:20:35.962Z,102831.80
2018-01-08T11:23:01.820Z,102826.27
2018-01-08T11:25:27.629Z,102824.38
2018-01-08T11:27:53.446Z,102820.52
2018-01-08T11:30:20.242Z,102820.39
2018-01-08T11:32:46.046Z,102806.83
2018-01-08T11:35:11.884Z,102803.31
2018-01-08T11:37:37.693Z,102801.22
2018-01-08T11:40:03.510Z,102802.33
2018-01-08T11:42:29.342Z,102802.53
2018-01-08T11:44:55.153Z,102809.14
2018-01-08T11:47:20.971Z,102807.98
2018-01-08T11:49:46.824Z,102808.97
2018-01-08T11:52:12.782Z,102812.13
2018-01-08T11:54:45.689Z,102806.55
2018-01-08T11:57:11.505Z,102805.38
2018-01-08T11:59:38.266Z,102806.77
2018-01-08T12:02:04.098Z,102802.58
2018-01-08T12:04:30.861Z,102805.67
2018-01-08T12:06:56.668Z,102800.13
2018-01-08T12:09:22.522Z,102803.23
2018-01-08T12:11:48.342Z,102805.67
2018-01-08T12:14:14.157Z,102795.79
2018-01-08T12:16:40.018Z,102803.69
2018-01-08T12:19:05.846Z,102793.06
2018-01-08T12:21:31.659Z,102791.19
2018-01-08T12:23:57.497Z,102791.63
2018-01-08T12:26:23.324Z,102782.65
2018-01-08T12:28:49.974Z,102788.15
2018-01-08T12:31:15.774Z,102782.14
2018-01-08T12:33:41.586Z,102782.90
2018-01-08T12:36:08.230Z,102779.52
2018-01-08T12:38:34.986Z,102782.80
2018-01-08T12:41:00.838Z,102771.42
2018-01-08T12:43:26.689Z,102781.70
2018-01-08T12:45:53.341Z,102774.91
2018-01-08T12:48:19.931Z,102779.20
2018-01-08T12:50:45.759Z,102782.58
2018-01-08T12:53:12.646Z,102774.27
2018-01-08T12:55:38.451Z,102780.25
2018-01-08T12:58:04.258Z,102776.48
2018-01-08T13:00:30.123Z,102765.80
2018-01-08T13:02:55.945Z,102764.98
2018-01-08T13:05:21.770Z,102763.96
2018-01-08T13:07:47.646Z,102767.59
2018-01-08T13:10:13.451Z,102767.20
2018-01-08T13:12:39.262Z,102768.73
2018-01-08T13:15:05.078Z,102770.76
2018-01-08T13:17:30.913Z,102771.72
2018-01-08T13:19:56.732Z,102768.09
2018-01-08T13:22:22.538Z,102762.94
2018-01-08T13:24:48.354Z,102768.16
2018-01-08T13:27:14.853Z,102763.75
2018-01-08T13:29:40.666Z,102757.98
2018-01-08T13:32:06.479Z,102764.94
2018-01-08T13:34:32.337Z,102761.36
2018-01-08T13:36:58.142Z,102766.94
2018-01-08T13:39:23.953Z,102767.70
2018-01-08T13:41:49.770Z,102767.38
2018-01-08T13:44:15.588Z,102759.59
2018-01-08T13:46:41.463Z,102757.47
2018-01-08T13:49:07.422Z,102761.63
2018-01-08T13:51:33.251Z,102760.16
2018-01-08T13:53:59.069Z,102767.78
2018-01-08T13:56:24.934Z,102763.11
2018-01-08T13:58:50.810Z,102774.00
2018-01-08T14:01:16.789Z,102777.05
2018-01-08T14:03:42.795Z,102778.83
2018-01-08T14:06:08.662Z,102775.55
2018-01-08T14:08:35.342Z,102775.42
2018-01-08T14:11:01.206Z,102783.84
2018-01-08T14:13:27.047Z,102778.58
2018-01-08T14:15:52.896Z,102782.94
2018-01-08T14:18:18.701Z,102791.32
2018-01-08T14:20:44.514Z,102783.69
2018-01-08T14:23:11.818Z,102779.85
2018-01-08T14:25:37.675Z,102778.11
2018-01-08T14:28:03.481Z,102785.41
2018-01-08T14:30:29.294Z,102788.41
2018-01-08T14:32:55.142Z,102780.97
2018-01-08T14:35:20.949Z,102788.96
2018-01-08T14:37:46.788Z,102791.50
2018-01-08T14:40:12.593Z,102788.99
2018-01-08T14:42:38.449Z,102789.06
2018-01-08T14:45:04.278Z,102790.75
2018-01-08T14:47:30.086Z,102788.95
2018-01-08T14:49:55.942Z,102790.39
2018-01-08T14:52:21.781Z,102797.61
2018-01-08T14:54:47.593Z,102790.23
2018-01-08T14:57:13.410Z,102794.48
2018-01-08T14:59:39.258Z,102796.07
2018-01-08T15:02:05.076Z,102797.27
2018-01-08T15:04:30.894Z,102804.20
2018-01-08T15:06:56.712Z,102800.78
2018-01-08T15:09:22.526Z,102797.38
2018-01-08T15:11:48.365Z,102796.79
2018-01-08T15:14:14.185Z,102806.66
2018-01-08T15:16:39.990Z,102806.41
2018-01-08T15:19:05.807Z,102809.63
2018-01-08T15:21:31.653Z,102801.87
2018-01-08T15:23:57.466Z,102799.53
2018-01-08T15:26:23.308Z,102802.76
2018-01-08T15:28:49.118Z,102798.34
2018-01-08T15:31:15.949Z,102793.14
2018-01-08T15:33:41.794Z,102795.55
2018-01-08T15:36:07.646Z,102794.95
2018-01-08T15:38:34.494Z,102799.72
2018-01-08T15:41:00.311Z,102793.31
2018-01-08T15:43:26.154Z,102789.98
2018-01-08T15:45:51.978Z,102791.47
2018-01-08T15:48:17.836Z,102787.84
2018-01-08T15:50:43.643Z,102793.78
2018-01-08T15:53:09.474Z,102791.61
2018-01-08T15:55:35.278Z,102798.45
2018-01-08T15:58:01.094Z,102795.67
2018-01-08T16:00:26.907Z,102794.34
2018-01-08T16:02:52.718Z,102794.31
2018-01-08T16:05:18.526Z,102783.34
2018-01-08T16:07:44.333Z,102783.45
2018-01-08T16:10:10.146Z,102792.78
2018-01-08T16:12:35.962Z,102783.43
2018-01-08T16:15:01.775Z,102787.28
2018-01-08T16:17:27.655Z,102789.87
2018-01-08T16:19:53.449Z,102785.00
2018-01-08T16:22:19.259Z,102786.01
2018-01-08T16:24:45.074Z,102781.88
2018-01-08T16:27:11.689Z,102785.17
2018-01-08T16:29:37.485Z,102783.08
2018-01-08T16:32:03.298Z,102782.77
2018-01-08T16:34:29.158Z,102786.94
2018-01-08T16:36:54.974Z,102794.22
2018-01-08T16:39:20.794Z,102782.75
2018-01-08T16:41:47.521Z,102784.89
2018-01-08T16:44:14.287Z,102785.95
2018-01-08T16:46:40.094Z,102785.08
2018-01-08T16:49:05.925Z,102782.55
2018-01-08T16:51:31.746Z,102781.63
2018-01-08T16:53:57.689Z,102772.30
2018-01-08T16:56:23.506Z,102771.66
2018-01-08T16:58:50.226Z,102767.45
2018-01-08T17:01:16.038Z,102775.25
2018-01-08T17:03:41.893Z,102768.09
2018-01-08T17:06:07.720Z,102764.89
2018-01-08T17:08:33.586Z,102760.56
2018-01-08T17:10:59.394Z,102760.86
2018-01-08T17:13:25.206Z,102764.44
2018-01-08T17:15:51.014Z,102765.57
2018-01-08T17:18:16.846Z,102765.23
2018-01-08T17:20:42.658Z,102765.69
2018-01-08T17:23:11.453Z,102770.93
2018-01-08T17:25:37.263Z,102760.55
2018-01-08T17:28:03.113Z,102760.12
2018-01-08T17:30:28.947Z,102765.31
2018-01-08T17:32:54.769Z,102762.08
2018-01-08T17:35:20.621Z,102757.59
2018-01-08T17:37:46.538Z,102757.43
2018-01-08T17:40:12.394Z,102750.67
2018-01-08T17:42:38.207Z,102758.77
2018-01-08T17:45:04.958Z,102758.08
2018-01-08T17:47:30.775Z,102758.56
2018-01-08T17:49:56.584Z,102755.87
2018-01-08T17:52:23.410Z,102760.48
2018-01-08T17:54:50.069Z,102758.55
2018-01-08T17:57:15.881Z,102758.46
2018-01-08T17:59:41.707Z,102756.75
2018-01-08T18:02:07.521Z,102756.84
2018-01-08T18:04:33.334Z,102758.79
2018-01-08T18:06:59.150Z,102763.59
2018-01-08T18:09:24.967Z,102767.80
2018-01-08T18:11:50.786Z,102759.39
2018-01-08T18:14:16.602Z,102760.66
2018-01-08T18:16:42.422Z,102770.96
2018-01-08T18:19:08.230Z,102774.05
2018-01-08T18:21:34.053Z,102783.11
2018-01-08T18:24:00.262Z,102779.73
2018-01-08T18:26:26.248Z,102771.07
2018-01-08T18:28:52.055Z,102771.23
2018-01-08T18:31:17.869Z,102761.63
2018-01-08T18:33:43.725Z,102763.20
2018-01-08T18:36:10.497Z,102770.23
2018-01-08T18:38:37.980Z,102770.23
2018-01-08T18:41:19.524Z,102771.42
2018-01-08T18:43:50.251Z,102766.22
2018-01-08T18:46:31.756Z,102765.70
2018-01-08T18:49:02.056Z,102763.61
2018-01-08T18:51:28.065Z,102754.92
2018-01-08T18:53:53.898Z,102750.78
2018-01-08T18:56:19.721Z,102755.19
2018-01-08T18:58:45.546Z,102747.23
2018-01-08T19:01:11.642Z,102746.25
2018-01-08T19:03:38.830Z,102738.98
2018-01-08T19:06:04.695Z,102744.70
2018-01-08T19:08:30.570Z,102748.17
2018-01-08T19:10:57.197Z,102740.25
2018-01-08T19:13:24.052Z,102740.85
2018-01-08T19:15:49.871Z,102732.39
2018-01-08T19:18:15.690Z,102715.20
2018-01-08T19:20:41.546Z,102719.24
2018-01-08T19:23:08.578Z,102702.58
2018-01-08T19:25:34.434Z,102695.77
2018-01-08T19:28:00.303Z,102696.72
2018-01-08T19:30:27.106Z,102699.30
2018-01-08T19:32:53.082Z,102706.85
2018-01-08T19:35:18.937Z,102706.95
2018-01-08T19:37:44.758Z,102701.85
2018-01-08T19:40:10.599Z,102697.77
2018-01-08T19:42:36.413Z,102698.73
2018-01-08T19:45:02.231Z,102692.94
2018-01-08T19:47:28.050Z,102699.95
2018-01-08T19:49:53.869Z,102692.09
2018-01-08T19:52:19.701Z,102693.20
2018-01-08T19:54:45.518Z,102692.62
2018-01-08T19:57:11.336Z,102696.12
2018-01-08T19:59:37.311Z,102697.31
2018-01-08T20:02:03.178Z,102699.81
2018-01-08T20:04:29.000Z,102697.81
2018-01-08T20:06:55.755Z,102706.88
2018-01-08T20:09:21.585Z,102707.44
2018-01-08T20:11:47.407Z,102699.78
2018-01-08T20:14:13.219Z,102703.41
2018-01-08T20:16:39.034Z,102702.80
2018-01-08T20:19:05.003Z,102698.95
2018-01-08T20:21:31.658Z,102693.98
2018-01-08T20:23:57.561Z,102698.00
2018-01-08T20:26:24.362Z,102690.45
2018-01-08T20:28:51.205Z,102699.83
2018-01-08T20:31:17.024Z,102697.98
2018-01-08T20:33:42.905Z,102698.47
2018-01-08T20:36:08.767Z,102689.80
2018-01-08T20:38:35.423Z,102688.41
2018-01-08T20:41:01.242Z,102696.05
2018-01-08T20:43:27.179Z,102700.20
2018-01-08T20:45:52.997Z,102705.61
2018-01-08T20:48:18.828Z,102706.78
2018-01-08T20:50:44.665Z,102693.56
2018-01-08T20:53:11.941Z,102697.59
2018-01-08T20:55:38.658Z,102698.58
2018-01-08T20:58:04.474Z,102695.74
2018-01-08T21:00:30.295Z,102700.70
2018-01-08T21:02:56.155Z,102695.47
2018-01-08T21:05:22.007Z,102700.58
2018-01-08T21:07:47.870Z,102698.13
2018-01-08T21:10:13.692Z,102696.86
2018-01-08T21:12:40.422Z,102688.17
2018-01-08T21:15:06.331Z,102673.64
2018-01-08T21:17:33.143Z,102666.05
2018-01-08T21:19:59.006Z,102664.84
2018-01-08T21:22:24.825Z,102669.68
2018-01-08T21:24:50.646Z,102664.02
2018-01-08T21:27:16.500Z,102659.50
2018-01-08T21:29:42.404Z,102652.27
2018-01-08T21:32:08.419Z,102648.30
2018-01-08T21:34:34.243Z,102653.42
2018-01-08T21:37:00.063Z,102650.37
2018-01-08T21:39:25.889Z,102650.47
2018-01-08T21:41:51.714Z,102647.31
2018-01-08T21:44:17.550Z,102645.08
2018-01-08T21:46:43.367Z,102647.41
2018-01-08T21:49:09.194Z,102644.14
2018-01-08T21:51:35.039Z,102645.58
2018-01-08T21:54:01.891Z,102635.84
2018-01-08T21:56:27.779Z,102637.39
2018-01-08T21:58:53.607Z,102635.59
2018-01-08T22:01:19.437Z,102637.97
2018-01-08T22:03:45.259Z,102636.39
2018-01-08T22:06:11.246Z,102631.43
2018-01-08T22:08:37.046Z,102625.23
2018-01-08T22:11:02.887Z,102622.63
2018-01-08T22:13:28.748Z,102621.48
2018-01-08T22:15:54.580Z,102623.78
2018-01-08T22:18:20.443Z,102607.91
2018-01-08T22:20:46.311Z,102603.65
2018-01-08T22:23:13.034Z,102611.95
2018-01-08T22:25:38.898Z,102596.95
2018-01-08T22:28:04.729Z,102591.39
2018-01-08T22:30:31.454Z,102583.23
2018-01-08T22:32:58.147Z,102581.23
2018-01-08T22:35:24.546Z,102580.60
2018-01-08T22:37:50.379Z,102580.58
2018-01-08T22:40:16.258Z,102574.38
2018-01-08T22:42:42.082Z,102572.13
2018-01-08T22:45:07.919Z,102569.31
2018-01-08T22:47:33.762Z,102559.86
2018-01-08T22:49:59.604Z,102554.54
2018-01-08T22:52:25.430Z,102557.64
2018-01-08T22:54:51.259Z,102556.68
2018-01-08T22:57:17.118Z,102539.25
2018-01-08T22:59:42.950Z,102543.70
2018-01-08T23:02:08.778Z,102548.76
2018-01-08T23:04:34.626Z,102547.89
2018-01-08T23:07:00.477Z,102546.19
2018-01-08T23:09:26.298Z,102539.70
2018-01-08T23:11:56.765Z,102542.76
2018-01-08T23:14:22.810Z,102539.25
2018-01-08T23:16:48.651Z,102537.99
2018-01-08T23:19:14.522Z,102538.63
2018-01-08T23:21:40.345Z,102526.92
2018-01-08T23:24:06.178Z,102512.05
2018-01-08T23:26:32.019Z,102502.25
2018-01-08T23:28:57.895Z,102491.77
2018-01-08T23:31:23.832Z,102486.50
2018-01-08T23:33:49.704Z,102485.75
2018-01-08T23:36:16.693Z,102480.27
2018-01-08T23:38:42.513Z,102483.89
2018-01-08T23:41:08.338Z,102479.30
2018-01-08T23:43:34.168Z,102482.27
2018-01-08T23:46:00.922Z,102475.57
2018-01-08T23:48:26.740Z,102473.33
2018-01-08T23:50:53.514Z,102464.77
2018-01-08T23:53:19.355Z,102461.50
2018-01-08T23:55:46.014Z,102464.52
2018-01-08T23:58:12.843Z,102455.21
